Time;durP1;ratioP1;P1;durP2;ratioP2;P2;SDS_P1;SDS_P2;PMS_P1;PMS_P2;Temp;Humidity;BMP_temperature;BMP_pressure;BME280_temperature;BME280_humidity;BME280_pressure;Samples;Min_cycle;Max_cycle;Signal;HPM_P1;HPM_P2
2021/12/23 00:16:29;;;;;;;12.10;3.13;;;;;;;15.93;100.00;101512.66;6156819;23;20365;-90
2021/12/23 00:19:05;;;;;;;20.73;4.37;;;;;;;15.87;100.00;101501.41;6133498;23;20496;-89
2021/12/23 00:24:20;;;;;;;9.93;3.30;;;;;;;15.92;100.00;101503.53;6113945;23;20402;-90
2021/12/23 00:57:41;;;;;;;3.93;1.23;;;;;;;15.93;100.00;101471.28;6152680;23;20478;-91
2021/12/23 05:22:25;;;;;;;7.87;3.40;;;;;;;16.00;100.00;101393.00;6152820;23;20506;-88
2021/12/23 05:24:53;;;;;;;11.03;4.10;;;;;;;15.91;100.00;101374.16;6127174;23;20449;-87
2021/12/23 05:27:21;;;;;;;8.57;4.20;;;;;;;15.92;100.00;101379.47;6079473;23;20403;-89
2021/12/23 05:29:49;;;;;;;6.77;3.10;;;;;;;15.97;100.00;101384.34;6102255;23;20402;-89
2021/12/23 05:32:17;;;;;;;7.63;3.77;;;;;;;15.93;100.00;101380.31;6125958;23;20414;-89
2021/12/23 05:34:45;;;;;;;6.53;3.90;;;;;;;15.89;100.00;101377.97;6102914;23;20402;-88
2021/12/23 05:37:13;;;;;;;12.43;3.40;;;;;;;15.89;100.00;101380.72;6101872;23;20405;-89
2021/12/23 05:39:42;;;;;;;7.30;3.50;;;;;;;15.89;100.00;101377.97;6102020;23;20461;-89
2021/12/23 05:42:10;;;;;;;6.57;4.20;;;;;;;15.87;100.00;101385.59;6102398;23;20438;-89
2021/12/23 05:44:37;;;;;;;9.63;4.70;;;;;;;15.83;100.00;101367.78;6102276;23;20461;-89
2021/12/23 05:47:05;;;;;;;13.73;8.67;;;;;;;15.89;100.00;101389.00;6125805;23;20410;-89
2021/12/23 05:49:33;;;;;;;13.67;7.80;;;;;;;15.88;100.00;101381.78;6078824;23;20390;-89
2021/12/23 05:52:03;;;;;;;10.93;5.93;;;;;;;15.93;100.00;101383.06;6102630;23;20387;-89
2021/12/23 05:54:31;;;;;;;8.87;5.10;;;;;;;15.91;100.00;101390.69;6101966;23;20733;-89
2021/12/23 05:57:02;;;;;;;9.90;4.80;;;;;;;15.89;100.00;101400.03;6102118;23;20453;-89
2021/12/23 05:59:31;;;;;;;14.13;5.33;;;;;;;15.88;100.00;101397.47;6102813;23;20509;-89
2021/12/23 06:01:59;;;;;;;15.70;7.50;;;;;;;15.87;100.00;101396.63;6078228;23;20453;-88
2021/12/23 06:04:28;;;;;;;18.77;8.10;;;;;;;15.87;100.00;101396.63;6102625;23;20409;-89
2021/12/23 06:06:56;;;;;;;20.80;9.43;;;;;;;15.88;100.00;101408.50;6126163;23;20411;-89
2021/12/23 06:17:22;;;;;;;18.03;7.37;;;;;;;15.91;100.00;101424.63;6127701;23;20419;-89
2021/12/23 06:19:50;;;;;;;12.83;6.57;;;;;;;15.86;100.00;101411.47;6126973;23;20485;-88
2021/12/23 06:22:18;;;;;;;26.37;9.73;;;;;;;15.89;100.00;101422.09;6077830;23;20434;-89
2021/12/23 06:24:48;;;;;;;16.13;10.40;;;;;;;15.86;100.00;101411.47;6129721;23;20437;-88
2021/12/23 06:27:18;;;;;;;13.40;9.00;;;;;;;15.90;100.00;101428.44;6084664;23;20405;-87
2021/12/23 06:29:45;;;;;;;14.00;8.60;;;;;;;15.89;100.00;101422.09;6107391;23;20408;-87
2021/12/23 06:32:13;;;;;;;10.63;6.10;;;;;;;15.88;100.00;101416.78;6130994;23;20717;-89
2021/12/23 06:34:41;;;;;;;10.13;5.93;;;;;;;15.87;100.00;101412.31;6082878;23;20456;-88
2021/12/23 06:37:08;;;;;;;8.87;5.33;;;;;;;15.87;100.00;101407.66;6106896;23;20412;-88
2021/12/23 06:39:36;;;;;;;7.10;5.07;;;;;;;15.87;100.00;101410.41;6082964;23;20412;-89
2021/12/23 06:42:04;;;;;;;7.83;4.60;;;;;;;15.87;100.00;101412.31;6083433;23;20869;-87
2021/12/23 06:44:32;;;;;;;7.40;4.63;;;;;;;15.84;100.00;101401.72;6130811;23;20416;-89
2021/12/23 06:47:02;;;;;;;7.87;3.53;;;;;;;15.85;100.00;101392.38;6106541;23;20950;-87
2021/12/23 06:49:31;;;;;;;7.83;4.47;;;;;;;15.86;100.00;101407.88;6107457;23;20959;-89
2021/12/23 06:52:00;;;;;;;7.57;4.30;;;;;;;15.85;100.00;101407.03;6083627;23;20409;-88
2021/12/23 06:54:27;;;;;;;18.53;4.93;;;;;;;15.83;100.00;101400.88;6130450;23;20432;-88
2021/12/23 06:56:56;;;;;;;11.47;6.23;;;;;;;15.83;100.00;101406.38;6106131;23;20409;-88
2021/12/23 06:59:24;;;;;;;12.47;5.53;;;;;;;15.82;100.00;101406.59;6107039;23;20404;-88
2021/12/23 07:01:52;;;;;;;22.87;13.80;;;;;;;15.77;100.00;101407.25;6107433;23;20401;-89
2021/12/23 07:04:22;;;;;;;49.50;23.73;;;;;;;15.82;100.00;101415.72;6106868;23;20477;-88
2021/12/23 07:07:09;;;;;;;27.23;14.33;;;;;;;15.83;100.00;101417.41;6108081;23;20799;-88
2021/12/23 07:36:56;;;;;;;7.50;4.63;;;;;;;15.81;100.00;101449.00;6154520;23;20934;-89
2021/12/23 07:39:23;;;;;;;9.20;4.20;;;;;;;15.82;100.00;101443.28;6130466;23;20772;-90
2021/12/23 07:54:06;;;;;;;7.93;4.13;;;;;;;15.88;100.00;101472.75;6156490;23;20412;-89
2021/12/23 07:56:42;;;;;;;10.63;4.83;;;;;;;15.88;100.00;101478.28;6130964;23;20429;-89
2021/12/23 07:59:11;;;;;;;10.30;5.23;;;;;;;15.85;100.00;101467.66;6129583;23;20424;-88
2021/12/23 08:01:39;;;;;;;7.80;4.17;;;;;;;15.86;100.00;101465.75;6156466;23;20472;-89
2021/12/23 08:04:06;;;;;;;9.67;4.87;;;;;;;15.88;100.00;101467.25;6082349;23;20445;-89
2021/12/23 08:06:34;;;;;;;7.80;4.93;;;;;;;15.89;100.00;101462.59;6083123;23;20412;-89
2021/12/23 08:09:05;;;;;;;10.80;4.50;;;;;;;15.88;100.00;101466.41;6106172;23;20408;-88
2021/12/23 08:11:33;;;;;;;11.40;4.80;;;;;;;15.86;100.00;101461.09;6130233;23;20401;-89
2021/12/23 08:14:00;;;;;;;8.30;4.80;;;;;;;15.91;100.00;101459.63;6105907;23;20733;-88
2021/12/23 08:16:28;;;;;;;11.87;4.90;;;;;;;15.88;100.00;101449.88;6129962;23;20410;-88
2021/12/23 08:18:55;;;;;;;11.63;5.33;;;;;;;15.94;100.00;101461.97;6130715;23;20503;-88
2021/12/23 08:21:26;;;;;;;12.20;4.50;;;;;;;15.94;100.00;101445.41;6106370;23;20484;-89
2021/12/23 08:23:55;;;;;;;9.20;4.60;;;;;;;15.95;100.00;101444.34;6082002;23;20500;-89
2021/12/23 08:26:27;;;;;;;8.87;5.23;;;;;;;15.99;100.00;101440.09;6106272;23;20402;-89
2021/12/23 08:28:56;;;;;;;8.33;4.40;;;;;;;15.98;100.00;101439.25;6107083;23;20406;-90
2021/12/23 08:31:24;;;;;;;8.27;4.47;;;;;;;16.09;100.00;101443.28;6106349;23;20755;-89
2021/12/23 08:33:52;;;;;;;7.00;3.70;;;;;;;16.08;100.00;101441.59;6105933;23;20397;-88
2021/12/23 08:36:20;;;;;;;8.13;3.80;;;;;;;16.13;100.00;101445.41;6105883;23;20812;-88
2021/12/23 08:38:47;;;;;;;6.80;3.60;;;;;;;16.18;100.00;101447.50;6130501;23;20893;-89
2021/12/23 08:41:17;;;;;;;5.20;3.10;;;;;;;16.18;100.00;101442.84;6106186;23;20451;-88
2021/12/23 08:43:44;;;;;;;8.20;3.20;;;;;;;16.19;100.00;101438.16;6081754;23;20532;-88
2021/12/23 08:46:13;;;;;;;4.40;2.43;;;;;;;16.22;100.00;101451.53;6083476;23;20406;-89
2021/12/23 08:48:43;;;;;;;11.73;2.50;;;;;;;16.25;100.00;101448.38;6108298;23;20402;-92
2021/12/23 08:51:11;;;;;;;6.03;2.70;;;;;;;16.27;100.00;101446.25;6131935;23;20488;-87
2021/12/23 08:53:44;;;;;;;4.50;1.77;;;;;;;16.27;100.00;101440.72;6106524;23;20979;-85
2021/12/23 08:56:11;;;;;;;6.70;1.70;;;;;;;16.27;100.00;101437.13;6157143;23;20404;-85
2021/12/23 08:58:39;;;;;;;8.23;1.73;;;;;;;16.34;100.00;101447.09;6131236;23;20967;-85
2021/12/23 09:01:07;;;;;;;5.17;1.73;;;;;;;16.35;100.00;101447.94;6105350;23;20793;-85
2021/12/23 09:03:35;;;;;;;12.00;1.80;;;;;;;16.39;100.00;101461.06;6106946;23;20437;-86
2021/12/23 09:06:03;;;;;;;5.67;2.30;;;;;;;16.42;100.00;101443.25;6083860;23;20780;-86
2021/12/23 09:08:31;;;;;;;6.27;1.97;;;;;;;16.36;100.00;101433.06;6106774;23;20480;-86
2021/12/23 09:10:58;;;;;;;11.60;2.43;;;;;;;16.41;100.00;101442.38;6130871;23;20899;-88
2021/12/23 09:13:29;;;;;;;9.60;2.30;;;;;;;16.42;100.00;101440.47;6107071;23;20408;-89
2021/12/23 09:15:57;;;;;;;8.40;2.77;;;;;;;16.43;100.00;101437.50;6132585;23;20406;-89
2021/12/23 09:18:25;;;;;;;13.03;3.00;;;;;;;16.50;100.00;101443.03;6131070;23;20416;-90
2021/12/23 09:20:57;;;;;;;6.53;2.90;;;;;;;16.53;100.00;101442.59;6107387;23;20727;-90
2021/12/23 09:23:26;;;;;;;8.27;3.00;;;;;;;16.57;100.00;101455.72;6155514;23;20473;-89
2021/12/23 09:25:54;;;;;;;6.57;2.87;;;;;;;16.61;100.00;101452.53;6131667;23;20405;-89
2021/12/23 09:28:29;;;;;;;5.27;2.47;;;;;;;16.70;100.00;101462.31;6107514;23;20413;-89
2021/12/23 09:33:44;;;;;;;10.83;3.93;;;;;;;16.84;100.00;101463.97;6115428;23;20412;-91
2021/12/23 09:36:11;;;;;;;13.97;3.50;;;;;;;16.91;100.00;101459.28;6107857;23;20437;-90
2021/12/23 09:38:40;;;;;;;17.00;3.77;;;;;;;16.98;100.00;101471.13;6108560;23;20406;-91
2021/12/23 09:41:16;;;;;;;11.33;3.40;;;;;;;16.98;100.00;101473.91;6107973;23;20504;-90
2021/12/23 09:43:45;;;;;;;17.80;4.03;;;;;;;17.02;100.00;101474.31;6133150;23;20476;-90
2021/12/23 09:46:16;;;;;;;15.00;3.03;;;;;;;17.04;100.00;101477.72;6106619;23;20398;-91
2021/12/23 09:48:45;;;;;;;9.33;2.37;;;;;;;17.07;100.00;101460.69;6108225;23;20484;-90
2021/12/23 09:51:15;;;;;;;12.90;2.87;;;;;;;17.08;100.00;101445.81;6131848;23;20900;-89
2021/12/23 09:53:46;;;;;;;11.13;2.43;;;;;;;17.13;100.00;101452.38;6108481;23;20461;-90
2021/12/23 09:56:15;;;;;;;20.97;3.20;;;;;;;17.23;100.00;101446.38;6108326;23;20473;-90
2021/12/23 09:58:45;;;;;;;21.90;5.37;;;;;;;17.34;100.00;101453.97;6106386;23;20398;-91
2021/12/23 10:01:14;;;;;;;12.37;4.27;;;;;;;17.48;100.00;101455.59;6107469;23;20385;-90
2021/12/23 10:03:46;;;;;;;8.37;3.10;;;;;;;17.61;100.00;101471.25;6131164;23;20527;-90
2021/12/23 10:06:14;;;;;;;16.60;3.60;;;;;;;17.70;100.00;101469.97;6130889;23;20900;-90
2021/12/23 10:08:42;;;;;;;20.43;3.83;;;;;;;17.79;100.00;101479.66;6108022;23;20718;-89
2021/12/23 10:11:26;;;;;;;30.47;5.70;;;;;;;17.85;100.00;101484.31;6107264;23;20390;-92
2021/12/23 10:31:11;;;;;;;27.70;8.13;;;;;;;18.10;100.00;101508.34;6109999;23;20390;-89
2021/12/23 10:38:51;;;;;;;19.37;5.83;;;;;;;17.72;100.00;101512.03;6101358;23;20746;-89
2021/12/23 10:41:27;;;;;;;19.27;4.70;;;;;;;17.67;100.00;101517.41;6126298;23;20386;-89
2021/12/23 10:44:00;;;;;;;25.30;4.30;;;;;;;17.61;100.00;101529.31;6100590;23;20488;-88
2021/12/23 10:46:35;;;;;;;17.63;6.73;;;;;;;17.53;100.00;101541.44;6101145;23;20767;-86
2021/12/23 10:49:38;;;;;;;25.30;6.17;;;;;;;17.48;100.00;101521.94;6105322;23;20399;-88
2021/12/23 10:52:17;;;;;;;14.30;4.57;;;;;;;17.51;100.00;101513.19;6104252;23;20467;-89
2021/12/23 11:00:21;;;;;;;4.23;1.37;;;;;;;18.11;100.00;101494.31;6127513;23;20701;-89
2021/12/23 11:03:31;;;;;;;10.47;4.60;;;;;;;18.43;100.00;101495.09;6102352;23;20410;-90
2021/12/23 11:08:59;;;;;;;32.70;13.67;;;;;;;18.86;100.00;101497.00;6126076;23;20409;-90
2021/12/23 12:14:39;;;;;;;21.17;4.80;;;;;;;19.47;100.00;101421.19;6154975;23;20412;-89
2021/12/23 12:17:25;;;;;;;27.43;5.00;;;;;;;19.65;100.00;101415.59;6130063;23;20405;-89
2021/12/23 12:20:35;;;;;;;20.80;5.10;;;;;;;19.77;100.00;101410.09;6129966;23;20401;-88
2021/12/23 12:23:10;;;;;;;24.70;4.23;;;;;;;19.85;100.00;101401.41;6042834;23;20418;-89
2021/12/23 12:25:38;;;;;;;14.10;2.80;;;;;;;20.16;100.00;101408.56;6021119;23;20473;-91
2021/12/23 12:28:06;;;;;;;19.90;3.97;;;;;;;20.25;100.00;101412.66;6065812;23;20415;-89
2021/12/23 12:30:53;;;;;;;28.83;4.10;;;;;;;20.27;100.00;101416.03;6066013;23;20416;-91
2021/12/23 12:36:51;;;;;;;19.43;3.07;;;;;;;20.05;100.00;101387.19;6066617;23;20495;-91
2021/12/23 12:39:47;;;;;;;24.50;4.93;;;;;;;20.03;100.00;101376.31;6043826;23;20458;-89
2021/12/23 12:42:31;;;;;;;16.20;4.13;;;;;;;20.08;100.00;101375.63;6062888;23;20965;-90
2021/12/23 12:45:09;;;;;;;15.10;3.40;;;;;;;20.10;100.00;101382.63;6065321;23;20903;-89
2021/12/23 12:47:48;;;;;;;31.20;5.90;;;;;;;20.09;100.00;101369.81;6065716;23;20408;-89
2021/12/23 12:50:18;;;;;;;18.30;4.47;;;;;;;20.14;100.00;101366.31;6019424;23;20483;-89
2021/12/23 12:52:47;;;;;;;30.00;7.93;;;;;;;20.17;100.00;101368.63;6041618;23;20588;-88
2021/12/23 12:55:23;;;;;;;27.20;8.50;;;;;;;20.18;100.00;101359.22;6041914;23;20408;-89
2021/12/23 12:57:54;;;;;;;27.50;6.50;;;;;;;20.21;100.00;101358.69;6036516;23;20403;-88
2021/12/23 13:00:35;;;;;;;17.63;4.33;;;;;;;20.21;100.00;101350.38;6129886;23;20485;-89
2021/12/23 13:03:03;;;;;;;19.37;3.93;;;;;;;20.22;100.00;101357.63;6083872;23;20500;-89
2021/12/23 13:05:43;;;;;;;24.23;6.07;;;;;;;20.18;100.00;101353.66;6154814;23;20455;-88
2021/12/23 13:08:15;;;;;;;22.00;5.20;;;;;;;20.12;100.00;101352.69;6130967;23;20768;-89
2021/12/23 13:10:48;;;;;;;23.10;6.73;;;;;;;20.07;100.00;101347.00;6106229;23;20409;-89
2021/12/23 13:13:40;;;;;;;53.30;21.67;;;;;;;20.01;100.00;101339.69;6106923;23;20500;-87
2021/12/23 13:16:15;;;;;;;15.37;4.13;;;;;;;19.97;100.00;101339.31;6132052;23;20408;-88
2021/12/23 13:18:42;;;;;;;21.07;3.50;;;;;;;20.05;100.00;101343.63;6105369;23;20437;-87
2021/12/23 13:21:10;;;;;;;17.17;4.77;;;;;;;20.13;100.00;101332.19;6081500;23;20409;-89
2021/12/23 13:23:45;;;;;;;20.90;5.10;;;;;;;20.20;100.00;101329.28;6104611;23;20931;-89
2021/12/23 13:26:21;;;;;;;24.30;7.70;;;;;;;20.17;100.00;101310.34;6154356;23;20406;-89
2021/12/23 13:28:55;;;;;;;27.07;8.03;;;;;;;20.12;100.00;101313.84;6105734;23;20408;-89
2021/12/23 13:31:26;;;;;;;27.83;12.40;;;;;;;19.98;100.00;101318.81;6106825;23;20496;-89
2021/12/23 13:34:12;;;;;;;10.37;3.60;;;;;;;19.77;100.00;101319.41;6106402;23;20405;-88
2021/12/23 13:36:44;;;;;;;15.80;4.20;;;;;;;19.67;100.00;101317.22;6085312;23;20415;-90
2021/12/23 13:39:13;;;;;;;7.80;2.00;;;;;;;19.56;100.00;101317.22;6132001;23;20409;-89
2021/12/23 13:41:42;;;;;;;22.13;5.87;;;;;;;19.52;100.00;101319.63;6107634;23;20408;-88
2021/12/23 13:44:23;;;;;;;13.20;3.00;;;;;;;19.54;100.00;101316.59;6107143;23;20436;-89
2021/12/23 13:46:59;;;;;;;17.97;3.83;;;;;;;19.50;100.00;101318.16;6131634;23;20433;-90
2021/12/23 13:49:33;;;;;;;11.00;3.10;;;;;;;19.57;100.00;101316.97;6130712;23;20413;-89
2021/12/23 13:52:03;;;;;;;15.73;3.80;;;;;;;19.56;100.00;101311.66;6038098;23;20401;-88
2021/12/23 13:54:38;;;;;;;24.17;8.60;;;;;;;19.50;100.00;101309.84;6061312;23;20484;-89
2021/12/23 13:57:12;;;;;;;24.50;7.20;;;;;;;19.37;100.00;101310.03;6036233;23;20401;-88
2021/12/23 13:59:40;;;;;;;16.30;5.77;;;;;;;19.27;100.00;101319.75;6060930;23;20940;-88
2021/12/23 14:02:11;;;;;;;14.20;4.33;;;;;;;19.15;100.00;101316.13;6060997;23;20737;-89
2021/12/23 14:05:02;;;;;;;67.57;31.83;;;;;;;19.14;100.00;101319.97;6060743;23;20508;-88
2021/12/23 14:07:35;;;;;;;18.37;3.67;;;;;;;19.09;100.00;101322.59;6037667;23;20420;-90
2021/12/23 14:10:08;;;;;;;35.60;11.43;;;;;;;19.21;100.00;101312.41;6089532;23;20416;-89
2021/12/23 14:12:52;;;;;;;17.10;5.30;;;;;;;19.26;100.00;101314.44;6106647;23;20447;-89
2021/12/23 14:15:26;;;;;;;37.17;11.37;;;;;;;19.37;100.00;101312.81;6131736;23;20780;-88
2021/12/23 14:23:43;;;;;;;18.77;3.90;;;;;;;19.47;100.00;101308.34;6107874;23;20409;-93
2021/12/23 14:26:28;;;;;;;25.70;10.40;;;;;;;19.41;100.00;101311.25;6107952;23;20496;-92
2021/12/23 14:29:31;;;;;;;21.90;8.20;;;;;;;19.38;100.00;101306.19;6112389;23;20954;-90
2021/12/23 14:32:14;;;;;;;18.37;4.10;;;;;;;19.33;100.00;101313.28;6044273;23;20411;-93
2021/12/23 14:46:41;;;;;;;50.63;20.37;;;;;;;19.21;100.00;101301.31;6067513;23;20840;-89
2021/12/23 14:51:44;;;;;;;13.87;5.90;;;;;;;19.24;100.00;101300.81;6043244;23;20491;-89
2021/12/23 14:54:23;;;;;;;20.77;6.10;;;;;;;19.22;100.00;101299.41;6044332;23;20927;-88
2021/12/23 14:57:04;;;;;;;18.00;7.20;;;;;;;19.25;100.00;101302.53;6043064;23;20484;-88
2021/12/23 14:59:47;;;;;;;23.77;7.80;;;;;;;19.28;100.00;101318.69;6042898;23;20797;-89
2021/12/23 15:02:41;;;;;;;18.33;4.57;;;;;;;19.21;100.00;101323.50;6091411;23;20402;-88
2021/12/23 15:05:17;;;;;;;24.00;7.47;;;;;;;19.17;100.00;101324.19;6127513;23;20982;-94
2021/12/23 15:07:48;;;;;;;12.07;2.10;;;;;;;19.06;100.00;101325.00;6078311;23;20390;-89
2021/12/23 15:10:41;;;;;;;13.63;2.17;;;;;;;18.76;100.00;101320.31;6153213;23;20892;-89
2021/12/23 15:13:25;;;;;;;6.97;1.20;;;;;;;18.66;100.00;101324.72;6141416;23;20429;-91
2021/12/23 15:16:01;;;;;;;10.40;1.83;;;;;;;18.60;100.00;101327.34;6102710;23;20405;-89
2021/12/23 15:18:57;;;;;;;10.60;2.00;;;;;;;18.53;100.00;101331.22;6126033;23;20496;-89
2021/12/23 15:21:36;;;;;;;7.10;2.17;;;;;;;18.49;100.00;101317.00;6130816;23;20437;-90
2021/12/23 15:24:24;;;;;;;15.07;1.50;;;;;;;18.44;100.00;101319.63;6102110;23;20409;-89
2021/12/23 15:27:20;;;;;;;14.60;1.80;;;;;;;18.34;100.00;101310.16;6130693;23;20436;-88
2021/12/23 15:29:53;;;;;;;12.33;2.03;;;;;;;18.30;100.00;101310.63;6127195;23;20464;-90
2021/12/23 15:32:28;;;;;;;9.33;2.00;;;;;;;18.32;100.00;101324.25;6125825;23;20444;-89
2021/12/23 15:35:06;;;;;;;5.93;1.57;;;;;;;18.26;100.00;101314.13;6126768;23;20400;-89
2021/12/23 15:37:37;;;;;;;9.90;1.57;;;;;;;18.22;100.00;101319.25;6130660;23;20401;-89
2021/12/23 15:40:06;;;;;;;12.17;1.77;;;;;;;18.16;100.00;101311.88;6130005;23;20425;-87
2021/12/23 15:42:53;;;;;;;10.97;1.87;;;;;;;18.16;100.00;101308.25;6133704;23;20409;-88
2021/12/23 15:45:21;;;;;;;4.30;1.40;;;;;;;18.11;100.00;101303.41;6130200;23;20480;-88
2021/12/23 15:47:52;;;;;;;7.90;2.13;;;;;;;18.05;100.00;101307.09;6154311;23;20456;-90
2021/12/23 15:50:24;;;;;;;7.83;2.07;;;;;;;18.00;100.00;101308.88;6126263;23;20401;-89
2021/12/23 15:52:58;;;;;;;13.93;2.17;;;;;;;17.84;100.00;101294.56;6104460;23;20397;-89
2021/12/23 15:55:27;;;;;;;9.60;2.60;;;;;;;17.90;100.00;101315.75;6150811;23;20796;-89
2021/12/23 15:57:57;;;;;;;13.23;3.03;;;;;;;17.83;100.00;101317.75;6102436;23;20460;-91
2021/12/23 16:00:25;;;;;;;13.30;2.60;;;;;;;17.80;100.00;101326.50;6103008;23;20402;-88
2021/12/23 16:02:54;;;;;;;9.40;2.90;;;;;;;17.77;100.00;101315.03;6102649;23;20408;-90
2021/12/23 16:07:51;;;;;;;12.00;2.33;;;;;;;17.72;100.00;101320.41;6130736;23;20960;-90
2021/12/23 16:10:24;;;;;;;10.83;2.87;;;;;;;17.70;100.00;101317.03;6083388;23;20433;-90
2021/12/23 16:12:54;;;;;;;14.70;2.40;;;;;;;17.63;100.00;101306.00;6105447;23;20441;-90
2021/12/23 16:15:22;;;;;;;9.20;2.20;;;;;;;17.59;100.00;101313.91;6105996;23;20456;-89
2021/12/23 16:17:50;;;;;;;14.87;2.57;;;;;;;17.61;100.00;101316.44;6106700;23;20914;-90
2021/12/23 16:20:22;;;;;;;11.63;2.63;;;;;;;17.48;100.00;101308.28;6107109;23;20408;-89
2021/12/23 16:22:50;;;;;;;15.50;2.50;;;;;;;17.49;100.00;101319.09;6106417;23;20415;-88
2021/12/23 16:25:17;;;;;;;17.10;3.60;;;;;;;17.42;100.00;101317.44;6082931;23;20762;-89
2021/12/23 16:27:51;;;;;;;11.57;3.20;;;;;;;17.46;100.00;101324.22;6105602;23;20408;-89
2021/12/23 16:30:20;;;;;;;15.73;3.10;;;;;;;17.38;100.00;101313.44;6129879;23;20428;-86
2021/12/23 16:33:08;;;;;;;16.23;2.77;;;;;;;17.34;100.00;101309.44;6109559;23;20782;-87
2021/12/23 16:35:39;;;;;;;8.93;2.67;;;;;;;17.39;100.00;101317.91;6130314;23;20471;-87
2021/12/23 16:38:07;;;;;;;8.47;1.67;;;;;;;17.32;100.00;101312.41;6106564;23;20393;-86
2021/12/23 16:40:37;;;;;;;8.37;1.70;;;;;;;17.30;100.00;101305.44;6129876;23;20485;-87
2021/12/23 16:43:04;;;;;;;14.90;2.40;;;;;;;17.30;100.00;101311.81;6106447;23;20409;-87
2021/12/23 16:45:40;;;;;;;10.87;2.23;;;;;;;17.23;100.00;101309.09;6107490;23;20452;-87
2021/12/23 16:48:13;;;;;;;12.27;3.17;;;;;;;17.23;100.00;101322.91;6107422;23;20405;-87
2021/12/23 16:50:42;;;;;;;17.43;3.53;;;;;;;17.18;100.00;101322.72;6082252;23;20938;-86
2021/12/23 16:53:10;;;;;;;14.23;3.50;;;;;;;17.13;100.00;101322.53;6106388;23;20891;-87
2021/12/23 16:58:15;;;;;;;76.60;44.43;;;;;;;17.11;100.00;101338.50;6102984;23;20918;-88
2021/12/23 17:00:45;;;;;;;42.03;27.33;;;;;;;17.04;100.00;101321.13;6126876;23;20393;-89
2021/12/23 17:03:12;;;;;;;30.13;15.70;;;;;;;17.00;100.00;101325.41;6103278;23;20489;-88
2021/12/23 17:05:41;;;;;;;53.20;36.00;;;;;;;16.98;100.00;101330.28;6081628;23;20532;-89
2021/12/23 17:08:10;;;;;;;98.63;79.93;;;;;;;16.95;100.00;101327.97;6107052;23;20753;-88
2021/12/23 17:10:40;;;;;;;66.00;50.37;;;;;;;16.91;100.00;101321.22;6084661;23;20452;-88
2021/12/23 17:13:09;;;;;;;23.17;19.37;;;;;;;16.82;100.00;101306.81;6102035;23;20438;-88
2021/12/23 17:15:36;;;;;;;18.70;7.40;;;;;;;16.78;100.00;101311.06;6102541;23;20730;-88
2021/12/23 17:18:08;;;;;;;8.43;4.90;;;;;;;16.71;100.00;101304.75;6102395;23;20505;-88
2021/12/23 17:23:10;;;;;;;11.50;4.03;;;;;;;16.64;100.00;101319.66;6101374;23;20406;-88
2021/12/23 17:25:37;;;;;;;13.50;3.53;;;;;;;16.53;100.00;101308.22;6102446;23;21027;-89
2021/12/23 17:28:05;;;;;;;14.97;2.93;;;;;;;16.52;100.00;101308.44;6102922;23;20402;-89
2021/12/23 17:30:37;;;;;;;8.80;2.50;;;;;;;16.48;100.00;101307.19;6102463;23;20417;-89
2021/12/23 17:33:04;;;;;;;12.57;2.80;;;;;;;16.39;100.00;101306.56;6078566;23;20408;-88
2021/12/23 17:35:35;;;;;;;15.20;4.20;;;;;;;16.39;100.00;101312.06;6079028;23;20402;-89
2021/12/23 17:38:08;;;;;;;12.43;3.20;;;;;;;16.36;100.00;101312.50;6103050;23;20410;-88
2021/12/23 17:40:37;;;;;;;13.80;4.03;;;;;;;16.33;100.00;101318.50;6102623;23;20477;-89
2021/12/23 17:43:09;;;;;;;10.33;3.10;;;;;;;16.27;100.00;101313.84;6102118;23;20915;-88
2021/12/23 17:45:37;;;;;;;15.10;3.77;;;;;;;16.18;100.00;101321.47;6102255;23;20442;-89
2021/12/23 17:48:07;;;;;;;6.70;2.63;;;;;;;16.10;100.00;101313.47;6103169;23;20391;-88
2021/12/23 17:50:35;;;;;;;17.40;2.90;;;;;;;16.09;100.00;101310.91;6102570;23;20754;-89
2021/12/23 17:53:05;;;;;;;8.77;2.43;;;;;;;16.01;100.00;101311.13;6126891;23;20438;-89
2021/12/23 17:55:33;;;;;;;10.83;4.13;;;;;;;15.97;100.00;101323.69;6102704;23;20770;-88
2021/12/23 17:58:01;;;;;;;16.27;4.83;;;;;;;15.97;100.00;101334.72;6125597;23;20432;-90
2021/12/23 18:00:29;;;;;;;15.20;5.80;;;;;;;15.85;100.00;101315.22;6078128;23;20506;-89
2021/12/23 18:02:58;;;;;;;13.40;6.13;;;;;;;15.89;100.00;101324.75;6102674;23;20406;-89
2021/12/23 18:05:27;;;;;;;20.07;9.40;;;;;;;15.82;100.00;101327.50;6078755;23;20437;-92
2021/12/23 18:07:56;;;;;;;18.40;9.00;;;;;;;15.81;100.00;101335.97;6126729;23;20402;-89
2021/12/23 18:10:26;;;;;;;13.03;6.00;;;;;;;15.78;100.00;101336.41;6127301;23;20403;-91
2021/12/23 18:12:54;;;;;;;10.60;5.20;;;;;;;15.73;100.00;101342.59;6109190;23;20487;-88
2021/12/23 18:15:23;;;;;;;13.03;3.77;;;;;;;15.73;100.00;101342.59;6083457;23;20405;-88
2021/12/23 18:17:51;;;;;;;16.43;3.07;;;;;;;15.62;100.00;101326.66;6082315;23;20408;-88
2021/12/23 18:20:20;;;;;;;15.40;4.00;;;;;;;15.65;100.00;101348.28;6106933;23;20401;-89
2021/12/23 18:22:49;;;;;;;9.60;3.30;;;;;;;15.62;100.00;101351.47;6109964;23;20421;-89
2021/12/23 18:25:26;;;;;;;14.73;2.93;;;;;;;15.55;100.00;101347.84;6135550;23;20503;-89
2021/12/23 18:27:54;;;;;;;10.80;3.73;;;;;;;15.59;100.00;101349.13;6106670;23;20460;-89
2021/12/23 18:30:22;;;;;;;11.90;4.10;;;;;;;15.57;100.00;101354.03;6106705;23;20410;-87
2021/12/23 18:32:50;;;;;;;11.57;2.67;;;;;;;15.58;100.00;101347.47;6107431;23;20386;-89
2021/12/23 18:35:25;;;;;;;14.33;3.47;;;;;;;15.60;100.00;101356.34;6107309;23;20413;-89
2021/12/23 18:37:57;;;;;;;25.33;9.40;;;;;;;15.52;100.00;101348.28;6132934;23;20565;-90
2021/12/23 18:40:27;;;;;;;18.13;5.77;;;;;;;15.58;100.00;101369.50;6084453;23;20456;-90
2021/12/23 18:43:15;;;;;;;21.23;7.40;;;;;;;15.55;100.00;101375.41;6115807;23;20433;-89
2021/12/23 18:45:43;;;;;;;15.20;5.77;;;;;;;15.46;100.00;101360.13;6131136;23;20469;-90
2021/12/23 18:48:19;;;;;;;15.00;8.10;;;;;;;15.55;100.00;101375.41;6087878;23;20448;-87
2021/12/23 18:50:48;;;;;;;30.70;13.00;;;;;;;15.54;100.00;101373.72;6106659;23;20476;-91
2021/12/23 18:53:21;;;;;;;33.43;18.60;;;;;;;15.62;100.00;101383.69;6108175;23;20409;-92
2021/12/23 18:55:49;;;;;;;18.07;11.83;;;;;;;15.53;100.00;101369.25;6131909;23;20492;-92
2021/12/23 18:58:19;;;;;;;26.43;10.20;;;;;;;15.54;100.00;101370.97;6084478;23;20396;-91
2021/12/23 19:00:55;;;;;;;24.00;7.20;;;;;;;15.53;100.00;101364.59;6107992;23;20741;-91
2021/12/23 19:06:19;;;;;;;17.70;7.53;;;;;;;15.62;100.00;101381.78;6095885;23;20455;-92
2021/12/23 19:08:52;;;;;;;16.97;8.90;;;;;;;15.60;100.00;101383.06;6049002;23;20421;-92
2021/12/23 19:11:34;;;;;;;15.30;5.90;;;;;;;15.56;100.00;101376.28;6072364;23;20450;-92
2021/12/23 19:14:02;;;;;;;7.80;4.40;;;;;;;15.54;100.00;101379.22;6048381;23;20446;-91
2021/12/23 19:16:31;;;;;;;14.70;5.50;;;;;;;15.56;100.00;101382.66;6048127;23;20501;-91
2021/12/23 19:19:04;;;;;;;20.87;12.87;;;;;;;15.59;100.00;101381.38;6071641;23;20412;-91
2021/12/23 19:21:36;;;;;;;21.63;15.80;;;;;;;15.52;100.00;101373.06;6073098;23;20471;-91
2021/12/23 19:24:04;;;;;;;12.73;8.07;;;;;;;15.54;100.00;101379.22;6072577;23;20490;-91
2021/12/23 19:26:34;;;;;;;20.63;4.67;;;;;;;15.59;100.00;101375.88;6096141;23;20450;-91
2021/12/23 19:29:03;;;;;;;8.70;2.50;;;;;;;15.46;100.00;101377.50;6048247;23;20742;-89
2021/12/23 19:31:32;;;;;;;11.90;2.80;;;;;;;15.44;100.00;101365.00;6096235;23;20404;-91
2021/12/23 19:34:04;;;;;;;22.97;13.93;;;;;;;15.45;100.00;101383.22;6048927;23;20917;-91
2021/12/23 19:36:37;;;;;;;75.40;45.03;;;;;;;15.47;100.00;101389.38;6072950;23;20423;-92
2021/12/23 19:39:22;;;;;;;39.57;25.37;;;;;;;15.40;100.00;101378.34;6072120;23;20435;-92
2021/12/23 19:41:50;;;;;;;42.70;24.60;;;;;;;15.48;100.00;101380.06;6096401;23;20407;-91